sensor_id;sensor_type;location;lat;lon;timestamp;temperature;humidity
78455;SHT31;67751;51.986;5.696;2024-03-22T00:01:19;13.1;74.1
78455;SHT31;67751;51.986;5.696;2024-03-22T00:03:48;13.1;74.0
78455;SHT31;67751;51.986;5.696;2024-03-22T00:06:17;13.1;74.1
78455;SHT31;67751;51.986;5.696;2024-03-22T00:08:47;13.1;74.2
78455;SHT31;67751;51.986;5.696;2024-03-22T00:11:16;13.2;74.1
78455;SHT31;67751;51.986;5.696;2024-03-22T00:13:46;13.2;74.1
78455;SHT31;67751;51.986;5.696;2024-03-22T00:16:15;13.2;74.2
78455;SHT31;67751;51.986;5.696;2024-03-22T00:18:45;13.2;74.2
78455;SHT31;67751;51.986;5.696;2024-03-22T00:21:14;13.2;74.3
78455;SHT31;67751;51.986;5.696;2024-03-22T00:23:45;13.2;74.2
78455;SHT31;67751;51.986;5.696;2024-03-22T00:26:14;13.2;74.3
78455;SHT31;67751;51.986;5.696;2024-03-22T00:28:44;13.3;74.2
78455;SHT31;67751;51.986;5.696;2024-03-22T00:31:14;13.3;74.3
78455;SHT31;67751;51.986;5.696;2024-03-22T00:33:44;13.3;74.4
78455;SHT31;67751;51.986;5.696;2024-03-22T00:36:13;13.3;74.3
78455;SHT31;67751;51.986;5.696;2024-03-22T00:38:43;13.3;74.4
78455;SHT31;67751;51.986;5.696;2024-03-22T00:41:12;13.3;74.4
78455;SHT31;67751;51.986;5.696;2024-03-22T00:43:42;13.3;74.4
78455;SHT31;67751;51.986;5.696;2024-03-22T00:46:11;13.3;74.3
78455;SHT31;67751;51.986;5.696;2024-03-22T00:48:41;13.3;74.5
78455;SHT31;67751;51.986;5.696;2024-03-22T00:51:10;13.3;74.5
78455;SHT31;67751;51.986;5.696;2024-03-22T00:53:40;13.3;74.5
78455;SHT31;67751;51.986;5.696;2024-03-22T00:56:09;13.3;74.5
78455;SHT31;67751;51.986;5.696;2024-03-22T00:58:39;13.3;74.5
78455;SHT31;67751;51.986;5.696;2024-03-22T01:01:08;13.3;74.8
78455;SHT31;67751;51.986;5.696;2024-03-22T01:03:38;13.3;74.6
78455;SHT31;67751;51.986;5.696;2024-03-22T01:06:07;13.3;74.7
78455;SHT31;67751;51.986;5.696;2024-03-22T01:08:37;13.3;74.7
78455;SHT31;67751;51.986;5.696;2024-03-22T01:11:06;13.3;74.7
78455;SHT31;67751;51.986;5.696;2024-03-22T01:13:36;13.3;74.8
78455;SHT31;67751;51.986;5.696;2024-03-22T01:16:06;13.3;74.8
78455;SHT31;67751;51.986;5.696;2024-03-22T01:18:37;13.3;74.8
78455;SHT31;67751;51.986;5.696;2024-03-22T01:21:06;13.3;74.8
78455;SHT31;67751;51.986;5.696;2024-03-22T01:23:38;13.3;74.6
78455;SHT31;67751;51.986;5.696;2024-03-22T01:26:07;13.3;74.7
78455;SHT31;67751;51.986;5.696;2024-03-22T01:28:37;13.3;74.6
78455;SHT31;67751;51.986;5.696;2024-03-22T01:31:06;13.3;74.7
78455;SHT31;67751;51.986;5.696;2024-03-22T01:33:36;13.3;74.7
78455;SHT31;67751;51.986;5.696;2024-03-22T01:36:06;13.3;74.8
78455;SHT31;67751;51.986;5.696;2024-03-22T01:38:35;13.3;74.7
78455;SHT31;67751;51.986;5.696;2024-03-22T01:41:06;13.3;74.8
78455;SHT31;67751;51.986;5.696;2024-03-22T01:43:35;13.3;74.8
78455;SHT31;67751;51.986;5.696;2024-03-22T01:46:07;13.3;74.9
78455;SHT31;67751;51.986;5.696;2024-03-22T01:48:37;13.3;74.9
78455;SHT31;67751;51.986;5.696;2024-03-22T01:51:08;13.3;74.9
78455;SHT31;67751;51.986;5.696;2024-03-22T01:53:38;13.2;74.9
78455;SHT31;67751;51.986;5.696;2024-03-22T01:56:09;13.2;74.8
78455;SHT31;67751;51.986;5.696;2024-03-22T01:58:39;13.2;74.7
78455;SHT31;67751;51.986;5.696;2024-03-22T02:01:10;13.2;74.8
78455;SHT31;67751;51.986;5.696;2024-03-22T02:03:39;13.2;74.9
78455;SHT31;67751;51.986;5.696;2024-03-22T02:06:09;13.2;74.8
78455;SHT31;67751;51.986;5.696;2024-03-22T02:08:40;13.2;75.0
78455;SHT31;67751;51.986;5.696;2024-03-22T02:11:11;13.2;75.0
78455;SHT31;67751;51.986;5.696;2024-03-22T02:13:41;13.2;75.2
78455;SHT31;67751;51.986;5.696;2024-03-22T02:16:12;13.2;75.3
78455;SHT31;67751;51.986;5.696;2024-03-22T02:18:41;13.2;75.3
78455;SHT31;67751;51.986;5.696;2024-03-22T02:21:11;13.2;75.3
78455;SHT31;67751;51.986;5.696;2024-03-22T02:23:41;13.2;75.7
78455;SHT31;67751;51.986;5.696;2024-03-22T02:26:11;13.2;75.9
78455;SHT31;67751;51.986;5.696;2024-03-22T02:28:40;13.2;76.0
78455;SHT31;67751;51.986;5.696;2024-03-22T02:31:09;13.2;75.8
78455;SHT31;67751;51.986;5.696;2024-03-22T02:33:39;13.2;76.0
78455;SHT31;67751;51.986;5.696;2024-03-22T02:36:10;13.2;75.9
78455;SHT31;67751;51.986;5.696;2024-03-22T02:38:40;13.2;75.9
78455;SHT31;67751;51.986;5.696;2024-03-22T02:41:09;13.2;75.9
78455;SHT31;67751;51.986;5.696;2024-03-22T02:43:39;13.2;75.8
78455;SHT31;67751;51.986;5.696;2024-03-22T02:46:09;13.2;76.0
78455;SHT31;67751;51.986;5.696;2024-03-22T02:48:38;13.2;75.9
78455;SHT31;67751;51.986;5.696;2024-03-22T02:51:08;13.3;75.9
78455;SHT31;67751;51.986;5.696;2024-03-22T02:53:37;13.3;76.1
78455;SHT31;67751;51.986;5.696;2024-03-22T02:56:07;13.3;76.1
78455;SHT31;67751;51.986;5.696;2024-03-22T02:58:37;13.3;76.1
78455;SHT31;67751;51.986;5.696;2024-03-22T03:01:06;13.3;75.9
78455;SHT31;67751;51.986;5.696;2024-03-22T03:03:36;13.3;75.9
78455;SHT31;67751;51.986;5.696;2024-03-22T03:06:06;13.3;75.8
78455;SHT31;67751;51.986;5.696;2024-03-22T03:08:36;13.3;75.7
78455;SHT31;67751;51.986;5.696;2024-03-22T03:11:05;13.3;75.7
78455;SHT31;67751;51.986;5.696;2024-03-22T03:13:35;13.3;75.6
78455;SHT31;67751;51.986;5.696;2024-03-22T03:16:07;13.3;75.5
78455;SHT31;67751;51.986;5.696;2024-03-22T03:18:36;13.3;75.4
78455;SHT31;67751;51.986;5.696;2024-03-22T03:21:08;13.3;75.5
78455;SHT31;67751;51.986;5.696;2024-03-22T03:23:37;13.3;75.4
78455;SHT31;67751;51.986;5.696;2024-03-22T03:26:07;13.3;75.4
78455;SHT31;67751;51.986;5.696;2024-03-22T03:28:36;13.3;75.4
78455;SHT31;67751;51.986;5.696;2024-03-22T03:31:06;13.3;75.4
78455;SHT31;67751;51.986;5.696;2024-03-22T03:33:35;13.3;75.4
78455;SHT31;67751;51.986;5.696;2024-03-22T03:36:05;13.3;75.5
78455;SHT31;67751;51.986;5.696;2024-03-22T03:38:35;13.3;75.5
78455;SHT31;67751;51.986;5.696;2024-03-22T03:41:05;13.3;75.5
78455;SHT31;67751;51.986;5.696;2024-03-22T03:43:34;13.3;75.4
78455;SHT31;67751;51.986;5.696;2024-03-22T03:46:04;13.3;75.4
78455;SHT31;67751;51.986;5.696;2024-03-22T03:48:33;13.3;75.4
78455;SHT31;67751;51.986;5.696;2024-03-22T03:51:03;13.3;75.4
78455;SHT31;67751;51.986;5.696;2024-03-22T03:53:33;13.3;75.4
78455;SHT31;67751;51.986;5.696;2024-03-22T03:56:02;13.3;75.4
78455;SHT31;67751;51.986;5.696;2024-03-22T03:58:32;13.3;75.3
78455;SHT31;67751;51.986;5.696;2024-03-22T04:01:04;13.3;75.4
78455;SHT31;67751;51.986;5.696;2024-03-22T04:03:35;13.3;75.3
78455;SHT31;67751;51.986;5.696;2024-03-22T04:06:05;13.3;75.4
78455;SHT31;67751;51.986;5.696;2024-03-22T04:08:34;13.3;75.4
78455;SHT31;67751;51.986;5.696;2024-03-22T04:11:04;13.4;75.2
78455;SHT31;67751;51.986;5.696;2024-03-22T04:13:33;13.4;75.0
78455;SHT31;67751;51.986;5.696;2024-03-22T04:16:03;13.3;74.8
78455;SHT31;67751;51.986;5.696;2024-03-22T04:18:33;13.3;74.6
78455;SHT31;67751;51.986;5.696;2024-03-22T04:21:03;13.3;74.8
78455;SHT31;67751;51.986;5.696;2024-03-22T04:23:32;13.3;74.8
78455;SHT31;67751;51.986;5.696;2024-03-22T04:26:02;13.3;74.9
78455;SHT31;67751;51.986;5.696;2024-03-22T04:28:32;13.3;74.6
78455;SHT31;67751;51.986;5.696;2024-03-22T04:31:02;13.3;74.4
78455;SHT31;67751;51.986;5.696;2024-03-22T04:33:33;13.3;74.2
78455;SHT31;67751;51.986;5.696;2024-03-22T04:36:03;13.3;74.3
78455;SHT31;67751;51.986;5.696;2024-03-22T04:38:33;13.3;73.9
78455;SHT31;67751;51.986;5.696;2024-03-22T04:41:03;13.3;74.2
78455;SHT31;67751;51.986;5.696;2024-03-22T04:43:32;13.3;73.8
78455;SHT31;67751;51.986;5.696;2024-03-22T04:46:02;13.2;73.7
78455;SHT31;67751;51.986;5.696;2024-03-22T04:48:31;13.2;73.1
78455;SHT31;67751;51.986;5.696;2024-03-22T04:51:01;13.2;72.7
78455;SHT31;67751;51.986;5.696;2024-03-22T04:53:30;13.2;72.7
78455;SHT31;67751;51.986;5.696;2024-03-22T04:56:00;13.2;72.9
78455;SHT31;67751;51.986;5.696;2024-03-22T04:58:30;13.1;73.3
78455;SHT31;67751;51.986;5.696;2024-03-22T05:01:00;13.1;73.5
78455;SHT31;67751;51.986;5.696;2024-03-22T05:03:30;13.1;73.2
78455;SHT31;67751;51.986;5.696;2024-03-22T05:05:59;13.1;73.1
78455;SHT31;67751;51.986;5.696;2024-03-22T05:08:30;13.1;72.9
78455;SHT31;67751;51.986;5.696;2024-03-22T05:11:00;13.1;72.5
78455;SHT31;67751;51.986;5.696;2024-03-22T05:13:30;13.1;72.3
78455;SHT31;67751;51.986;5.696;2024-03-22T05:16:00;13.0;72.5
78455;SHT31;67751;51.986;5.696;2024-03-22T05:18:30;13.0;72.3
78455;SHT31;67751;51.986;5.696;2024-03-22T05:20:59;13.0;72.7
78455;SHT31;67751;51.986;5.696;2024-03-22T05:23:29;13.0;72.7
78455;SHT31;67751;51.986;5.696;2024-03-22T05:25:58;12.9;72.8
78455;SHT31;67751;51.986;5.696;2024-03-22T05:28:28;12.9;72.6
78455;SHT31;67751;51.986;5.696;2024-03-22T05:30:58;12.9;73.0
78455;SHT31;67751;51.986;5.696;2024-03-22T05:33:27;12.9;72.8
78455;SHT31;67751;51.986;5.696;2024-03-22T05:35:57;12.9;73.2
78455;SHT31;67751;51.986;5.696;2024-03-22T05:38:26;12.9;73.1
78455;SHT31;67751;51.986;5.696;2024-03-22T05:40:56;12.9;73.4
78455;SHT31;67751;51.986;5.696;2024-03-22T05:43:26;12.9;73.7
78455;SHT31;67751;51.986;5.696;2024-03-22T05:45:55;12.9;73.5
78455;SHT31;67751;51.986;5.696;2024-03-22T05:48:25;12.9;73.3
78455;SHT31;67751;51.986;5.696;2024-03-22T05:50:55;12.9;73.3
78455;SHT31;67751;51.986;5.696;2024-03-22T05:53:25;12.9;73.5
78455;SHT31;67751;51.986;5.696;2024-03-22T05:55:54;12.9;73.5
78455;SHT31;67751;51.986;5.696;2024-03-22T05:58:24;12.9;73.1
78455;SHT31;67751;51.986;5.696;2024-03-22T06:00:53;12.9;73.1
78455;SHT31;67751;51.986;5.696;2024-03-22T06:03:23;12.9;73.4
78455;SHT31;67751;51.986;5.696;2024-03-22T06:05:52;12.9;73.2
78455;SHT31;67751;51.986;5.696;2024-03-22T06:08:27;12.9;73.1
78455;SHT31;67751;51.986;5.696;2024-03-22T06:10:59;12.9;72.8
78455;SHT31;67751;51.986;5.696;2024-03-22T06:13:28;12.9;72.6
78455;SHT31;67751;51.986;5.696;2024-03-22T06:15:59;12.9;72.9
78455;SHT31;67751;51.986;5.696;2024-03-22T06:18:29;12.9;72.8
78455;SHT31;67751;51.986;5.696;2024-03-22T06:20:59;12.9;72.8
78455;SHT31;67751;51.986;5.696;2024-03-22T06:23:28;12.9;72.2
78455;SHT31;67751;51.986;5.696;2024-03-22T06:25:58;12.9;72.5
78455;SHT31;67751;51.986;5.696;2024-03-22T06:28:28;12.9;72.3
78455;SHT31;67751;51.986;5.696;2024-03-22T06:30:58;12.9;72.5
78455;SHT31;67751;51.986;5.696;2024-03-22T06:33:27;12.9;72.2
78455;SHT31;67751;51.986;5.696;2024-03-22T06:35:57;12.9;72.4
78455;SHT31;67751;51.986;5.696;2024-03-22T06:38:27;12.9;72.1
78455;SHT31;67751;51.986;5.696;2024-03-22T06:40:56;12.9;72.7
78455;SHT31;67751;51.986;5.696;2024-03-22T06:43:26;12.9;72.7
78455;SHT31;67751;51.986;5.696;2024-03-22T06:45:56;12.9;72.6
78455;SHT31;67751;51.986;5.696;2024-03-22T06:48:26;12.9;72.3
78455;SHT31;67751;51.986;5.696;2024-03-22T06:50:55;12.9;72.2
78455;SHT31;67751;51.986;5.696;2024-03-22T06:53:25;12.9;72.2
78455;SHT31;67751;51.986;5.696;2024-03-22T06:55:54;12.9;72.2
78455;SHT31;67751;51.986;5.696;2024-03-22T06:58:24;12.9;72.7
78455;SHT31;67751;51.986;5.696;2024-03-22T07:00:53;12.9;72.2
78455;SHT31;67751;51.986;5.696;2024-03-22T07:03:23;12.9;72.2
78455;SHT31;67751;51.986;5.696;2024-03-22T07:05:54;12.9;72.0
78455;SHT31;67751;51.986;5.696;2024-03-22T07:08:25;12.9;72.1
78455;SHT31;67751;51.986;5.696;2024-03-22T07:10:54;12.9;72.1
78455;SHT31;67751;51.986;5.696;2024-03-22T07:13:24;12.9;72.0
78455;SHT31;67751;51.986;5.696;2024-03-22T07:15:53;12.9;71.9
78455;SHT31;67751;51.986;5.696;2024-03-22T07:18:23;12.9;72.2
78455;SHT31;67751;51.986;5.696;2024-03-22T07:20:52;12.9;72.3
78455;SHT31;67751;51.986;5.696;2024-03-22T07:23:23;12.9;72.5
78455;SHT31;67751;51.986;5.696;2024-03-22T07:25:52;12.9;72.1
78455;SHT31;67751;51.986;5.696;2024-03-22T07:28:22;13.0;72.7
78455;SHT31;67751;51.986;5.696;2024-03-22T07:30:51;13.0;72.1
78455;SHT31;67751;51.986;5.696;2024-03-22T07:33:22;13.0;72.0
78455;SHT31;67751;51.986;5.696;2024-03-22T07:35:52;13.0;72.0
78455;SHT31;67751;51.986;5.696;2024-03-22T07:38:22;13.0;72.2
78455;SHT31;67751;51.986;5.696;2024-03-22T07:40:51;13.0;72.4
78455;SHT31;67751;51.986;5.696;2024-03-22T07:43:20;13.1;71.9
78455;SHT31;67751;51.986;5.696;2024-03-22T07:45:50;13.1;72.3
78455;SHT31;67751;51.986;5.696;2024-03-22T07:48:19;13.1;71.8
78455;SHT31;67751;51.986;5.696;2024-03-22T07:50:59;13.1;72.1
78455;SHT31;67751;51.986;5.696;2024-03-22T07:53:29;13.1;72.3
78455;SHT31;67751;51.986;5.696;2024-03-22T07:55:58;13.1;71.5
78455;SHT31;67751;51.986;5.696;2024-03-22T07:58:30;13.1;71.9
78455;SHT31;67751;51.986;5.696;2024-03-22T08:00:59;13.1;71.9
78455;SHT31;67751;51.986;5.696;2024-03-22T08:03:30;13.1;71.9
78455;SHT31;67751;51.986;5.696;2024-03-22T08:05:59;13.1;71.2
78455;SHT31;67751;51.986;5.696;2024-03-22T08:08:29;13.1;71.8
78455;SHT31;67751;51.986;5.696;2024-03-22T08:10:59;13.1;71.9
78455;SHT31;67751;51.986;5.696;2024-03-22T08:13:28;13.1;71.6
78455;SHT31;67751;51.986;5.696;2024-03-22T08:15:58;13.1;71.5
78455;SHT31;67751;51.986;5.696;2024-03-22T08:18:27;13.1;71.6
78455;SHT31;67751;51.986;5.696;2024-03-22T08:20:57;13.1;71.2
78455;SHT31;67751;51.986;5.696;2024-03-22T08:23:26;13.1;71.6
78455;SHT31;67751;51.986;5.696;2024-03-22T08:25:56;13.1;71.4
78455;SHT31;67751;51.986;5.696;2024-03-22T08:28:26;13.2;71.9
78455;SHT31;67751;51.986;5.696;2024-03-22T08:30:56;13.1;71.9
78455;SHT31;67751;51.986;5.696;2024-03-22T08:33:27;13.2;71.6
78455;SHT31;67751;51.986;5.696;2024-03-22T08:35:57;13.1;72.0
78455;SHT31;67751;51.986;5.696;2024-03-22T08:38:30;13.1;71.8
78455;SHT31;67751;51.986;5.696;2024-03-22T08:40:59;13.1;71.9
78455;SHT31;67751;51.986;5.696;2024-03-22T08:43:29;13.1;71.7
78455;SHT31;67751;51.986;5.696;2024-03-22T08:45:58;13.1;71.6
78455;SHT31;67751;51.986;5.696;2024-03-22T08:48:29;13.1;72.1
78455;SHT31;67751;51.986;5.696;2024-03-22T08:50:59;13.1;73.1
78455;SHT31;67751;51.986;5.696;2024-03-22T08:53:29;13.1;73.3
78455;SHT31;67751;51.986;5.696;2024-03-22T08:56:00;13.1;73.4
78455;SHT31;67751;51.986;5.696;2024-03-22T08:58:33;13.1;73.5
78455;SHT31;67751;51.986;5.696;2024-03-22T09:01:05;13.1;73.8
78455;SHT31;67751;51.986;5.696;2024-03-22T09:03:40;13.1;74.0
78455;SHT31;67751;51.986;5.696;2024-03-22T09:06:18;13.1;73.5
78455;SHT31;67751;51.986;5.696;2024-03-22T09:08:51;13.1;73.4
78455;SHT31;67751;51.986;5.696;2024-03-22T09:11:28;13.1;73.7
78455;SHT31;67751;51.986;5.696;2024-03-22T09:13:59;13.1;73.4
78455;SHT31;67751;51.986;5.696;2024-03-22T09:16:31;13.1;72.7
78455;SHT31;67751;51.986;5.696;2024-03-22T09:19:03;13.1;73.2
78455;SHT31;67751;51.986;5.696;2024-03-22T09:21:33;13.1;73.2
78455;SHT31;67751;51.986;5.696;2024-03-22T09:24:03;13.1;73.3
78455;SHT31;67751;51.986;5.696;2024-03-22T09:26:33;13.1;73.1
78455;SHT31;67751;51.986;5.696;2024-03-22T09:29:02;13.1;73.7
78455;SHT31;67751;51.986;5.696;2024-03-22T09:31:34;13.1;73.5
78455;SHT31;67751;51.986;5.696;2024-03-22T09:34:03;13.1;73.9
78455;SHT31;67751;51.986;5.696;2024-03-22T09:36:33;13.1;73.8
78455;SHT31;67751;51.986;5.696;2024-03-22T09:39:04;13.1;73.7
78455;SHT31;67751;51.986;5.696;2024-03-22T09:41:42;13.1;73.7
78455;SHT31;67751;51.986;5.696;2024-03-22T09:44:13;13.1;73.5
78455;SHT31;67751;51.986;5.696;2024-03-22T09:46:43;13.1;73.6
78455;SHT31;67751;51.986;5.696;2024-03-22T09:49:15;13.0;73.5
78455;SHT31;67751;51.986;5.696;2024-03-22T09:51:45;13.0;73.7
78455;SHT31;67751;51.986;5.696;2024-03-22T09:54:16;13.0;73.4
78455;SHT31;67751;51.986;5.696;2024-03-22T09:56:48;13.0;73.7
78455;SHT31;67751;51.986;5.696;2024-03-22T09:59:19;13.0;73.8
78455;SHT31;67751;51.986;5.696;2024-03-22T10:01:51;13.0;73.5
78455;SHT31;67751;51.986;5.696;2024-03-22T10:04:21;13.0;73.8
78455;SHT31;67751;51.986;5.696;2024-03-22T10:06:51;13.1;73.8
78455;SHT31;67751;51.986;5.696;2024-03-22T10:09:31;13.1;74.1
78455;SHT31;67751;51.986;5.696;2024-03-22T10:12:01;13.1;74.4
78455;SHT31;67751;51.986;5.696;2024-03-22T10:14:31;13.1;74.7
78455;SHT31;67751;51.986;5.696;2024-03-22T10:17:01;13.1;74.3
78455;SHT31;67751;51.986;5.696;2024-03-22T10:19:30;13.1;75.0
78455;SHT31;67751;51.986;5.696;2024-03-22T10:22:03;13.1;75.2
78455;SHT31;67751;51.986;5.696;2024-03-22T10:24:33;13.1;75.5
78455;SHT31;67751;51.986;5.696;2024-03-22T10:27:03;13.1;75.7
78455;SHT31;67751;51.986;5.696;2024-03-22T10:29:33;13.1;75.7
78455;SHT31;67751;51.986;5.696;2024-03-22T10:32:03;13.1;75.9
78455;SHT31;67751;51.986;5.696;2024-03-22T10:34:34;13.1;76.3
78455;SHT31;67751;51.986;5.696;2024-03-22T10:37:05;13.1;76.5
78455;SHT31;67751;51.986;5.696;2024-03-22T10:39:35;13.1;76.2
78455;SHT31;67751;51.986;5.696;2024-03-22T10:42:06;13.1;76.4
78455;SHT31;67751;51.986;5.696;2024-03-22T10:44:37;13.1;76.8
78455;SHT31;67751;51.986;5.696;2024-03-22T10:47:09;13.1;76.6
78455;SHT31;67751;51.986;5.696;2024-03-22T10:49:43;13.1;76.3
78455;SHT31;67751;51.986;5.696;2024-03-22T10:52:15;13.1;76.8
78455;SHT31;67751;51.986;5.696;2024-03-22T10:54:46;13.1;76.9
78455;SHT31;67751;51.986;5.696;2024-03-22T10:57:17;13.1;76.7
78455;SHT31;67751;51.986;5.696;2024-03-22T10:59:48;13.1;77.0
78455;SHT31;67751;51.986;5.696;2024-03-22T11:02:17;13.1;76.9
78455;SHT31;67751;51.986;5.696;2024-03-22T11:04:56;13.1;77.1
78455;SHT31;67751;51.986;5.696;2024-03-22T11:07:30;13.1;77.2
78455;SHT31;67751;51.986;5.696;2024-03-22T11:10:05;13.1;77.3
78455;SHT31;67751;51.986;5.696;2024-03-22T11:12:37;13.1;77.2
78455;SHT31;67751;51.986;5.696;2024-03-22T11:15:09;13.1;77.1
78455;SHT31;67751;51.986;5.696;2024-03-22T11:17:39;13.1;77.1
78455;SHT31;67751;51.986;5.696;2024-03-22T11:20:09;13.1;76.9
78455;SHT31;67751;51.986;5.696;2024-03-22T11:22:42;13.1;77.4
78455;SHT31;67751;51.986;5.696;2024-03-22T11:25:13;13.1;77.3
78455;SHT31;67751;51.986;5.696;2024-03-22T11:27:42;13.1;77.1
78455;SHT31;67751;51.986;5.696;2024-03-22T11:30:12;13.1;77.2
78455;SHT31;67751;51.986;5.696;2024-03-22T11:32:42;13.1;77.3
78455;SHT31;67751;51.986;5.696;2024-03-22T11:35:13;13.1;77.2
78455;SHT31;67751;51.986;5.696;2024-03-22T11:37:43;13.1;77.3
78455;SHT31;67751;51.986;5.696;2024-03-22T11:40:12;13.1;77.4
78455;SHT31;67751;51.986;5.696;2024-03-22T11:42:44;13.1;77.4
78455;SHT31;67751;51.986;5.696;2024-03-22T11:45:17;13.1;77.4
78455;SHT31;67751;51.986;5.696;2024-03-22T11:47:47;13.1;77.7
78455;SHT31;67751;51.986;5.696;2024-03-22T11:50:20;13.1;77.8
78455;SHT31;67751;51.986;5.696;2024-03-22T11:52:50;13.1;77.9
78455;SHT31;67751;51.986;5.696;2024-03-22T11:55:21;13.1;77.8
78455;SHT31;67751;51.986;5.696;2024-03-22T11:57:53;13.1;77.9
78455;SHT31;67751;51.986;5.696;2024-03-22T12:00:23;13.1;78.0
78455;SHT31;67751;51.986;5.696;2024-03-22T12:02:53;13.1;78.2
78455;SHT31;67751;51.986;5.696;2024-03-22T12:05:23;13.1;78.2
78455;SHT31;67751;51.986;5.696;2024-03-22T12:07:53;13.1;78.2
78455;SHT31;67751;51.986;5.696;2024-03-22T12:10:25;13.1;78.4
78455;SHT31;67751;51.986;5.696;2024-03-22T12:12:55;13.1;78.5
78455;SHT31;67751;51.986;5.696;2024-03-22T12:15:26;13.1;78.4
78455;SHT31;67751;51.986;5.696;2024-03-22T12:17:55;13.1;78.6
78455;SHT31;67751;51.986;5.696;2024-03-22T12:20:25;13.1;78.6
78455;SHT31;67751;51.986;5.696;2024-03-22T12:22:54;13.1;78.3
78455;SHT31;67751;51.986;5.696;2024-03-22T12:25:24;13.1;78.3
78455;SHT31;67751;51.986;5.696;2024-03-22T12:27:53;13.1;78.4
78455;SHT31;67751;51.986;5.696;2024-03-22T12:30:23;13.1;78.6
78455;SHT31;67751;51.986;5.696;2024-03-22T12:32:53;13.1;78.8
78455;SHT31;67751;51.986;5.696;2024-03-22T12:35:23;13.1;78.8
78455;SHT31;67751;51.986;5.696;2024-03-22T12:37:53;13.1;78.4
78455;SHT31;67751;51.986;5.696;2024-03-22T12:40:23;13.1;78.7
78455;SHT31;67751;51.986;5.696;2024-03-22T12:42:52;13.1;78.8
78455;SHT31;67751;51.986;5.696;2024-03-22T12:45:22;13.1;79.1
78455;SHT31;67751;51.986;5.696;2024-03-22T12:47:51;13.2;78.7
78455;SHT31;67751;51.986;5.696;2024-03-22T12:50:23;13.2;78.7
78455;SHT31;67751;51.986;5.696;2024-03-22T12:52:52;13.2;79.0
78455;SHT31;67751;51.986;5.696;2024-03-22T12:55:22;13.2;78.9
78455;SHT31;67751;51.986;5.696;2024-03-22T12:57:53;13.2;78.7
78455;SHT31;67751;51.986;5.696;2024-03-22T13:00:23;13.2;78.7
78455;SHT31;67751;51.986;5.696;2024-03-22T13:02:52;13.2;78.2
78455;SHT31;67751;51.986;5.696;2024-03-22T13:05:22;13.3;78.7
78455;SHT31;67751;51.986;5.696;2024-03-22T13:07:52;13.3;78.5
78455;SHT31;67751;51.986;5.696;2024-03-22T13:10:24;13.3;78.2
78455;SHT31;67751;51.986;5.696;2024-03-22T13:12:53;13.3;78.1
78455;SHT31;67751;51.986;5.696;2024-03-22T13:15:23;13.3;78.3
78455;SHT31;67751;51.986;5.696;2024-03-22T13:17:53;13.3;78.3
78455;SHT31;67751;51.986;5.696;2024-03-22T13:20:23;13.3;78.1
78455;SHT31;67751;51.986;5.696;2024-03-22T13:22:53;13.3;77.9
78455;SHT31;67751;51.986;5.696;2024-03-22T13:25:22;13.2;77.6
78455;SHT31;67751;51.986;5.696;2024-03-22T13:27:53;13.2;77.1
78455;SHT31;67751;51.986;5.696;2024-03-22T13:30:23;13.2;77.5
78455;SHT31;67751;51.986;5.696;2024-03-22T13:32:52;13.2;77.3
78455;SHT31;67751;51.986;5.696;2024-03-22T13:35:22;13.2;77.9
78455;SHT31;67751;51.986;5.696;2024-03-22T13:37:51;13.2;77.6
78455;SHT31;67751;51.986;5.696;2024-03-22T13:40:23;13.1;77.8
78455;SHT31;67751;51.986;5.696;2024-03-22T13:42:54;13.1;77.6
78455;SHT31;67751;51.986;5.696;2024-03-22T13:45:23;13.1;78.4
78455;SHT31;67751;51.986;5.696;2024-03-22T13:47:53;13.1;76.5
78455;SHT31;67751;51.986;5.696;2024-03-22T13:50:22;13.1;77.4
78455;SHT31;67751;51.986;5.696;2024-03-22T13:52:52;13.1;77.3
78455;SHT31;67751;51.986;5.696;2024-03-22T13:55:21;13.1;77.3
78455;SHT31;67751;51.986;5.696;2024-03-22T13:57:51;13.1;76.6
78455;SHT31;67751;51.986;5.696;2024-03-22T14:00:21;13.1;76.1
78455;SHT31;67751;51.986;5.696;2024-03-22T14:02:52;13.1;76.3
78455;SHT31;67751;51.986;5.696;2024-03-22T14:05:23;13.1;76.6
78455;SHT31;67751;51.986;5.696;2024-03-22T14:07:56;13.1;77.0
78455;SHT31;67751;51.986;5.696;2024-03-22T14:10:25;13.1;75.7
78455;SHT31;67751;51.986;5.696;2024-03-22T14:12:59;13.0;76.2
78455;SHT31;67751;51.986;5.696;2024-03-22T14:15:29;13.0;76.4
78455;SHT31;67751;51.986;5.696;2024-03-22T14:18:01;13.0;76.5
78455;SHT31;67751;51.986;5.696;2024-03-22T14:20:30;12.9;76.4
78455;SHT31;67751;51.986;5.696;2024-03-22T14:23:00;12.9;76.0
78455;SHT31;67751;51.986;5.696;2024-03-22T14:25:31;12.9;76.3
78455;SHT31;67751;51.986;5.696;2024-03-22T14:28:01;12.9;77.0
78455;SHT31;67751;51.986;5.696;2024-03-22T14:30:30;12.9;77.1
78455;SHT31;67751;51.986;5.696;2024-03-22T14:33:00;12.9;77.0
78455;SHT31;67751;51.986;5.696;2024-03-22T14:35:32;12.9;76.9
78455;SHT31;67751;51.986;5.696;2024-03-22T14:38:01;12.9;76.4
78455;SHT31;67751;51.986;5.696;2024-03-22T14:40:31;12.9;76.7
78455;SHT31;67751;51.986;5.696;2024-03-22T14:43:04;12.9;76.8
78455;SHT31;67751;51.986;5.696;2024-03-22T14:45:34;12.9;77.3
78455;SHT31;67751;51.986;5.696;2024-03-22T14:48:04;12.9;77.0
78455;SHT31;67751;51.986;5.696;2024-03-22T14:50:36;12.9;76.9
78455;SHT31;67751;51.986;5.696;2024-03-22T14:53:06;13.0;77.3
78455;SHT31;67751;51.986;5.696;2024-03-22T14:55:38;13.0;77.0
78455;SHT31;67751;51.986;5.696;2024-03-22T14:58:07;13.0;76.9
78455;SHT31;67751;51.986;5.696;2024-03-22T15:00:37;13.0;76.2
78455;SHT31;67751;51.986;5.696;2024-03-22T15:03:07;13.0;76.6
78455;SHT31;67751;51.986;5.696;2024-03-22T15:05:36;13.0;76.6
78455;SHT31;67751;51.986;5.696;2024-03-22T15:08:06;13.0;76.4
78455;SHT31;67751;51.986;5.696;2024-03-22T15:10:36;13.1;76.2
78455;SHT31;67751;51.986;5.696;2024-03-22T15:13:06;13.1;76.1
78455;SHT31;67751;51.986;5.696;2024-03-22T15:15:36;13.1;76.2
78455;SHT31;67751;51.986;5.696;2024-03-22T15:18:06;13.1;75.7
78455;SHT31;67751;51.986;5.696;2024-03-22T15:20:36;13.1;76.2
78455;SHT31;67751;51.986;5.696;2024-03-22T15:23:06;13.1;76.2
78455;SHT31;67751;51.986;5.696;2024-03-22T15:25:36;13.1;76.1
78455;SHT31;67751;51.986;5.696;2024-03-22T15:28:06;13.1;75.9
78455;SHT31;67751;51.986;5.696;2024-03-22T15:30:35;13.1;76.2
78455;SHT31;67751;51.986;5.696;2024-03-22T15:33:06;13.1;76.4
78455;SHT31;67751;51.986;5.696;2024-03-22T15:35:36;13.1;76.2
78455;SHT31;67751;51.986;5.696;2024-03-22T15:38:07;13.1;76.2
78455;SHT31;67751;51.986;5.696;2024-03-22T15:40:37;13.1;76.8
78455;SHT31;67751;51.986;5.696;2024-03-22T15:43:06;13.1;76.6
78455;SHT31;67751;51.986;5.696;2024-03-22T15:45:36;13.1;76.3
78455;SHT31;67751;51.986;5.696;2024-03-22T15:48:06;13.1;76.1
78455;SHT31;67751;51.986;5.696;2024-03-22T15:50:36;13.1;75.8
78455;SHT31;67751;51.986;5.696;2024-03-22T15:53:06;13.1;76.4
78455;SHT31;67751;51.986;5.696;2024-03-22T15:55:36;13.1;76.5
78455;SHT31;67751;51.986;5.696;2024-03-22T15:58:05;13.1;76.2
78455;SHT31;67751;51.986;5.696;2024-03-22T16:00:35;13.1;76.1
78455;SHT31;67751;51.986;5.696;2024-03-22T16:03:05;13.1;76.0
78455;SHT31;67751;51.986;5.696;2024-03-22T16:05:34;13.1;75.8
78455;SHT31;67751;51.986;5.696;2024-03-22T16:08:04;13.1;75.9
78455;SHT31;67751;51.986;5.696;2024-03-22T16:10:34;13.1;75.9
78455;SHT31;67751;51.986;5.696;2024-03-22T16:13:03;13.1;76.0
78455;SHT31;67751;51.986;5.696;2024-03-22T16:15:33;13.1;75.9
78455;SHT31;67751;51.986;5.696;2024-03-22T16:18:03;13.1;75.3
78455;SHT31;67751;51.986;5.696;2024-03-22T16:20:33;13.1;75.3